sensor_id;sensor_type;location;lat;lon;timestamp;P1;durP1;ratioP1;P2;durP2;ratioP2
80681;SDS011;70045;40.200;44.582;2023-08-30T00:01:46;5.78;;;3.33;;
80681;SDS011;70045;40.200;44.582;2023-08-30T00:04:11;7.05;;;3.85;;
80681;SDS011;70045;40.200;44.582;2023-08-30T00:06:36;6.45;;;3.30;;
80681;SDS011;70045;40.200;44.582;2023-08-30T00:09:08;6.35;;;3.60;;
80681;SDS011;70045;40.200;44.582;2023-08-30T00:11:33;7.18;;;3.40;;
80681;SDS011;70045;40.200;44.582;2023-08-30T00:14:02;7.38;;;3.30;;
80681;SDS011;70045;40.200;44.582;2023-08-30T00:16:28;6.90;;;2.90;;
80681;SDS011;70045;40.200;44.582;2023-08-30T00:18:54;4.05;;;2.63;;
80681;SDS011;70045;40.200;44.582;2023-08-30T00:21:26;5.88;;;2.75;;
80681;SDS011;70045;40.200;44.582;2023-08-30T00:23:51;6.03;;;3.10;;
80681;SDS011;70045;40.200;44.582;2023-08-30T00:26:17;4.07;;;2.67;;
80681;SDS011;70045;40.200;44.582;2023-08-30T00:28:42;5.85;;;3.03;;
80681;SDS011;70045;40.200;44.582;2023-08-30T00:31:08;3.42;;;2.45;;
80681;SDS011;70045;40.200;44.582;2023-08-30T00:33:40;5.95;;;2.97;;
80681;SDS011;70045;40.200;44.582;2023-08-30T00:36:05;6.30;;;3.05;;
80681;SDS011;70045;40.200;44.582;2023-08-30T00:38:33;4.47;;;2.60;;
80681;SDS011;70045;40.200;44.582;2023-08-30T00:40:58;3.83;;;2.30;;
80681;SDS011;70045;40.200;44.582;2023-08-30T00:43:24;6.00;;;3.22;;
80681;SDS011;70045;40.200;44.582;2023-08-30T00:45:58;4.60;;;2.70;;
80681;SDS011;70045;40.200;44.582;2023-08-30T00:48:24;4.32;;;2.92;;
80681;SDS011;70045;40.200;44.582;2023-08-30T00:50:49;4.13;;;2.70;;
80681;SDS011;70045;40.200;44.582;2023-08-30T00:53:15;5.28;;;2.90;;
80681;SDS011;70045;40.200;44.582;2023-08-30T00:55:42;3.72;;;2.60;;
80681;SDS011;70045;40.200;44.582;2023-08-30T00:58:14;3.67;;;2.38;;
80681;SDS011;70045;40.200;44.582;2023-08-30T01:00:40;7.57;;;2.88;;
80681;SDS011;70045;40.200;44.582;2023-08-30T01:03:05;5.20;;;3.00;;
80681;SDS011;70045;40.200;44.582;2023-08-30T01:05:31;6.25;;;2.88;;
80681;SDS011;70045;40.200;44.582;2023-08-30T01:07:56;9.90;;;3.40;;
80681;SDS011;70045;40.200;44.582;2023-08-30T01:13:27;7.50;;;3.53;;
80681;SDS011;70045;40.200;44.582;2023-08-30T01:15:58;5.60;;;3.53;;
80681;SDS011;70045;40.200;44.582;2023-08-30T01:18:26;5.75;;;3.13;;
80681;SDS011;70045;40.200;44.582;2023-08-30T01:21:00;5.22;;;3.03;;
80681;SDS011;70045;40.200;44.582;2023-08-30T01:23:39;5.15;;;3.33;;
80681;SDS011;70045;40.200;44.582;2023-08-30T01:26:13;5.00;;;3.10;;
80681;SDS011;70045;40.200;44.582;2023-08-30T01:28:51;7.03;;;3.58;;
80681;SDS011;70045;40.200;44.582;2023-08-30T01:31:26;5.93;;;3.33;;
80681;SDS011;70045;40.200;44.582;2023-08-30T01:33:53;5.10;;;2.85;;
80681;SDS011;70045;40.200;44.582;2023-08-30T01:36:18;4.72;;;3.05;;
80681;SDS011;70045;40.200;44.582;2023-08-30T01:38:44;4.43;;;2.75;;
80681;SDS011;70045;40.200;44.582;2023-08-30T01:41:19;6.60;;;2.80;;
80681;SDS011;70045;40.200;44.582;2023-08-30T01:43:45;5.60;;;3.05;;
80681;SDS011;70045;40.200;44.582;2023-08-30T01:46:13;6.50;;;2.97;;
80681;SDS011;70045;40.200;44.582;2023-08-30T01:48:39;4.97;;;3.22;;
80681;SDS011;70045;40.200;44.582;2023-08-30T01:51:06;7.68;;;3.17;;
80681;SDS011;70045;40.200;44.582;2023-08-30T01:53:39;6.20;;;3.10;;
80681;SDS011;70045;40.200;44.582;2023-08-30T01:56:05;5.13;;;3.00;;
80681;SDS011;70045;40.200;44.582;2023-08-30T01:58:30;7.03;;;3.40;;
80681;SDS011;70045;40.200;44.582;2023-08-30T02:00:56;6.18;;;2.90;;
80681;SDS011;70045;40.200;44.582;2023-08-30T02:03:31;5.97;;;3.13;;
80681;SDS011;70045;40.200;44.582;2023-08-30T02:08:41;5.13;;;3.00;;
80681;SDS011;70045;40.200;44.582;2023-08-30T02:11:13;4.38;;;2.83;;
80681;SDS011;70045;40.200;44.582;2023-08-30T02:13:52;5.88;;;2.90;;
80681;SDS011;70045;40.200;44.582;2023-08-30T02:16:21;8.77;;;3.58;;
80681;SDS011;70045;40.200;44.582;2023-08-30T02:18:50;9.38;;;3.70;;
80681;SDS011;70045;40.200;44.582;2023-08-30T02:21:15;5.40;;;3.05;;
80681;SDS011;70045;40.200;44.582;2023-08-30T02:23:41;6.60;;;3.42;;
80681;SDS011;70045;40.200;44.582;2023-08-30T02:26:17;7.32;;;3.47;;
80681;SDS011;70045;40.200;44.582;2023-08-30T02:28:46;5.22;;;3.13;;
80681;SDS011;70045;40.200;44.582;2023-08-30T02:31:11;6.22;;;3.22;;
80681;SDS011;70045;40.200;44.582;2023-08-30T02:33:37;6.97;;;3.10;;
80681;SDS011;70045;40.200;44.582;2023-08-30T02:36:02;5.93;;;3.55;;
80681;SDS011;70045;40.200;44.582;2023-08-30T02:38:36;5.40;;;2.72;;
80681;SDS011;70045;40.200;44.582;2023-08-30T02:41:01;6.28;;;3.83;;
80681;SDS011;70045;40.200;44.582;2023-08-30T02:43:27;7.43;;;3.75;;
80681;SDS011;70045;40.200;44.582;2023-08-30T02:45:52;5.63;;;3.38;;
80681;SDS011;70045;40.200;44.582;2023-08-30T02:48:18;8.32;;;3.00;;
80681;SDS011;70045;40.200;44.582;2023-08-30T02:50:51;6.28;;;3.40;;
80681;SDS011;70045;40.200;44.582;2023-08-30T02:53:17;7.63;;;3.22;;
80681;SDS011;70045;40.200;44.582;2023-08-30T02:55:42;10.05;;;3.55;;
80681;SDS011;70045;40.200;44.582;2023-08-30T02:58:07;7.97;;;3.78;;
80681;SDS011;70045;40.200;44.582;2023-08-30T03:00:33;8.65;;;3.55;;
80681;SDS011;70045;40.200;44.582;2023-08-30T03:03:08;9.15;;;3.40;;
80681;SDS011;70045;40.200;44.582;2023-08-30T03:05:33;6.13;;;3.22;;
80681;SDS011;70045;40.200;44.582;2023-08-30T03:07:59;6.38;;;3.80;;
80681;SDS011;70045;40.200;44.582;2023-08-30T03:10:24;7.47;;;3.50;;
80681;SDS011;70045;40.200;44.582;2023-08-30T03:12:49;6.95;;;3.42;;
80681;SDS011;70045;40.200;44.582;2023-08-30T03:15:25;8.30;;;3.45;;
80681;SDS011;70045;40.200;44.582;2023-08-30T03:17:50;10.10;;;3.85;;
80681;SDS011;70045;40.200;44.582;2023-08-30T03:20:15;6.88;;;3.03;;
80681;SDS011;70045;40.200;44.582;2023-08-30T03:22:41;6.00;;;3.10;;
80681;SDS011;70045;40.200;44.582;2023-08-30T03:25:07;8.07;;;3.17;;
80681;SDS011;70045;40.200;44.582;2023-08-30T03:27:43;8.32;;;3.00;;
80681;SDS011;70045;40.200;44.582;2023-08-30T03:30:09;7.22;;;3.30;;
80681;SDS011;70045;40.200;44.582;2023-08-30T03:32:36;6.28;;;3.15;;
80681;SDS011;70045;40.200;44.582;2023-08-30T03:35:01;7.90;;;3.50;;
80681;SDS011;70045;40.200;44.582;2023-08-30T03:37:27;7.93;;;3.35;;
80681;SDS011;70045;40.200;44.582;2023-08-30T03:40:01;6.38;;;2.95;;
80681;SDS011;70045;40.200;44.582;2023-08-30T03:42:26;7.25;;;3.10;;
80681;SDS011;70045;40.200;44.582;2023-08-30T03:44:51;7.03;;;2.85;;
80681;SDS011;70045;40.200;44.582;2023-08-30T03:47:17;7.97;;;3.42;;
80681;SDS011;70045;40.200;44.582;2023-08-30T03:49:43;8.35;;;3.53;;
80681;SDS011;70045;40.200;44.582;2023-08-30T03:52:18;9.27;;;3.58;;
80681;SDS011;70045;40.200;44.582;2023-08-30T03:54:43;8.02;;;3.13;;
80681;SDS011;70045;40.200;44.582;2023-08-30T03:57:08;7.07;;;3.05;;
80681;SDS011;70045;40.200;44.582;2023-08-30T03:59:34;8.07;;;3.13;;
80681;SDS011;70045;40.200;44.582;2023-08-30T04:01:59;9.65;;;3.63;;
80681;SDS011;70045;40.200;44.582;2023-08-30T04:04:33;6.20;;;2.53;;
80681;SDS011;70045;40.200;44.582;2023-08-30T04:06:58;10.02;;;3.90;;
80681;SDS011;70045;40.200;44.582;2023-08-30T04:09:24;8.57;;;3.05;;
80681;SDS011;70045;40.200;44.582;2023-08-30T04:11:49;10.38;;;3.05;;
80681;SDS011;70045;40.200;44.582;2023-08-30T04:14:15;10.82;;;3.58;;
80681;SDS011;70045;40.200;44.582;2023-08-30T04:16:50;10.18;;;3.40;;
80681;SDS011;70045;40.200;44.582;2023-08-30T04:19:15;9.40;;;3.90;;
80681;SDS011;70045;40.200;44.582;2023-08-30T04:21:40;13.80;;;3.78;;
80681;SDS011;70045;40.200;44.582;2023-08-30T04:24:06;15.65;;;4.00;;
80681;SDS011;70045;40.200;44.582;2023-08-30T04:26:31;11.43;;;3.80;;
80681;SDS011;70045;40.200;44.582;2023-08-30T04:29:06;13.57;;;3.55;;
80681;SDS011;70045;40.200;44.582;2023-08-30T04:31:31;12.13;;;3.80;;
80681;SDS011;70045;40.200;44.582;2023-08-30T04:33:57;9.45;;;3.28;;
80681;SDS011;70045;40.200;44.582;2023-08-30T04:36:22;9.95;;;3.38;;
80681;SDS011;70045;40.200;44.582;2023-08-30T04:38:47;11.30;;;3.55;;
80681;SDS011;70045;40.200;44.582;2023-08-30T04:41:22;12.07;;;3.70;;
80681;SDS011;70045;40.200;44.582;2023-08-30T04:43:47;9.77;;;3.45;;
80681;SDS011;70045;40.200;44.582;2023-08-30T04:46:12;9.88;;;3.10;;
80681;SDS011;70045;40.200;44.582;2023-08-30T04:48:38;10.90;;;3.95;;
80681;SDS011;70045;40.200;44.582;2023-08-30T04:51:03;14.80;;;3.30;;
80681;SDS011;70045;40.200;44.582;2023-08-30T04:53:38;7.43;;;3.45;;
80681;SDS011;70045;40.200;44.582;2023-08-30T04:56:10;9.93;;;3.53;;
80681;SDS011;70045;40.200;44.582;2023-08-30T04:58:39;8.98;;;3.40;;
80681;SDS011;70045;40.200;44.582;2023-08-30T05:01:05;13.00;;;3.92;;
80681;SDS011;70045;40.200;44.582;2023-08-30T05:03:30;10.57;;;3.53;;
80681;SDS011;70045;40.200;44.582;2023-08-30T05:06:02;11.25;;;3.42;;
80681;SDS011;70045;40.200;44.582;2023-08-30T05:08:27;7.65;;;3.35;;
80681;SDS011;70045;40.200;44.582;2023-08-30T05:10:53;10.27;;;3.60;;
80681;SDS011;70045;40.200;44.582;2023-08-30T05:13:19;9.07;;;3.80;;
80681;SDS011;70045;40.200;44.582;2023-08-30T05:15:54;8.98;;;3.55;;
80681;SDS011;70045;40.200;44.582;2023-08-30T05:18:19;10.73;;;3.67;;
80681;SDS011;70045;40.200;44.582;2023-08-30T05:20:44;8.80;;;3.13;;
80681;SDS011;70045;40.200;44.582;2023-08-30T05:23:10;10.20;;;3.78;;
80681;SDS011;70045;40.200;44.582;2023-08-30T05:25:35;11.75;;;3.53;;
80681;SDS011;70045;40.200;44.582;2023-08-30T05:28:07;11.30;;;3.72;;
80681;SDS011;70045;40.200;44.582;2023-08-30T05:30:32;11.07;;;3.53;;
80681;SDS011;70045;40.200;44.582;2023-08-30T05:32:58;11.38;;;3.78;;
80681;SDS011;70045;40.200;44.582;2023-08-30T05:35:23;15.15;;;3.30;;
80681;SDS011;70045;40.200;44.582;2023-08-30T05:37:57;7.28;;;3.53;;
80681;SDS011;70045;40.200;44.582;2023-08-30T05:40:23;7.47;;;3.80;;
80681;SDS011;70045;40.200;44.582;2023-08-30T05:42:48;13.25;;;4.05;;
80681;SDS011;70045;40.200;44.582;2023-08-30T05:45:14;8.20;;;3.20;;
80681;SDS011;70045;40.200;44.582;2023-08-30T05:47:39;6.68;;;3.10;;
80681;SDS011;70045;40.200;44.582;2023-08-30T05:50:14;8.27;;;3.20;;
80681;SDS011;70045;40.200;44.582;2023-08-30T05:52:39;7.90;;;3.17;;
80681;SDS011;70045;40.200;44.582;2023-08-30T05:55:04;8.27;;;3.10;;
80681;SDS011;70045;40.200;44.582;2023-08-30T05:57:30;11.63;;;3.67;;
80681;SDS011;70045;40.200;44.582;2023-08-30T05:59:56;9.30;;;3.40;;
80681;SDS011;70045;40.200;44.582;2023-08-30T06:02:31;5.97;;;2.92;;
80681;SDS011;70045;40.200;44.582;2023-08-30T06:04:56;9.57;;;3.47;;
80681;SDS011;70045;40.200;44.582;2023-08-30T06:07:22;11.27;;;3.47;;
80681;SDS011;70045;40.200;44.582;2023-08-30T06:09:47;9.07;;;3.65;;
80681;SDS011;70045;40.200;44.582;2023-08-30T06:12:12;10.02;;;3.90;;
80681;SDS011;70045;40.200;44.582;2023-08-30T06:14:47;5.88;;;3.08;;
80681;SDS011;70045;40.200;44.582;2023-08-30T06:17:12;8.23;;;3.08;;
80681;SDS011;70045;40.200;44.582;2023-08-30T06:19:37;9.15;;;3.83;;
80681;SDS011;70045;40.200;44.582;2023-08-30T06:22:03;10.32;;;3.70;;
80681;SDS011;70045;40.200;44.582;2023-08-30T06:24:28;8.18;;;3.53;;
80681;SDS011;70045;40.200;44.582;2023-08-30T06:27:03;8.48;;;3.67;;
80681;SDS011;70045;40.200;44.582;2023-08-30T06:29:28;10.82;;;3.50;;
80681;SDS011;70045;40.200;44.582;2023-08-30T06:31:54;6.60;;;3.40;;
80681;SDS011;70045;40.200;44.582;2023-08-30T06:34:19;8.82;;;3.53;;
80681;SDS011;70045;40.200;44.582;2023-08-30T06:36:45;8.63;;;3.92;;
80681;SDS011;70045;40.200;44.582;2023-08-30T06:39:20;7.15;;;3.47;;
80681;SDS011;70045;40.200;44.582;2023-08-30T06:41:47;13.63;;;4.28;;
80681;SDS011;70045;40.200;44.582;2023-08-30T06:44:13;8.32;;;4.28;;
80681;SDS011;70045;40.200;44.582;2023-08-30T06:46:38;8.82;;;3.85;;
80681;SDS011;70045;40.200;44.582;2023-08-30T06:49:04;8.90;;;4.03;;
80681;SDS011;70045;40.200;44.582;2023-08-30T06:51:40;7.60;;;3.88;;
80681;SDS011;70045;40.200;44.582;2023-08-30T06:54:05;8.00;;;3.83;;
80681;SDS011;70045;40.200;44.582;2023-08-30T06:56:31;10.88;;;3.80;;
80681;SDS011;70045;40.200;44.582;2023-08-30T06:58:56;8.27;;;3.78;;
80681;SDS011;70045;40.200;44.582;2023-08-30T07:01:24;11.07;;;4.47;;
80681;SDS011;70045;40.200;44.582;2023-08-30T07:03:58;9.85;;;4.30;;
80681;SDS011;70045;40.200;44.582;2023-08-30T07:06:24;8.93;;;4.30;;
80681;SDS011;70045;40.200;44.582;2023-08-30T07:08:49;9.90;;;4.18;;
80681;SDS011;70045;40.200;44.582;2023-08-30T07:11:15;9.25;;;4.30;;
80681;SDS011;70045;40.200;44.582;2023-08-30T07:13:40;9.35;;;3.95;;
80681;SDS011;70045;40.200;44.582;2023-08-30T07:16:15;11.07;;;4.25;;
80681;SDS011;70045;40.200;44.582;2023-08-30T07:18:40;7.95;;;3.90;;
80681;SDS011;70045;40.200;44.582;2023-08-30T07:21:05;8.35;;;3.60;;
80681;SDS011;70045;40.200;44.582;2023-08-30T07:23:31;11.13;;;4.22;;
80681;SDS011;70045;40.200;44.582;2023-08-30T07:25:56;10.52;;;4.10;;
80681;SDS011;70045;40.200;44.582;2023-08-30T07:28:41;13.73;;;4.40;;
80681;SDS011;70045;40.200;44.582;2023-08-30T07:31:06;9.88;;;3.92;;
80681;SDS011;70045;40.200;44.582;2023-08-30T07:33:32;7.90;;;3.83;;
80681;SDS011;70045;40.200;44.582;2023-08-30T07:35:57;10.65;;;3.92;;
80681;SDS011;70045;40.200;44.582;2023-08-30T07:38:23;14.68;;;4.65;;
80681;SDS011;70045;40.200;44.582;2023-08-30T07:40:57;9.18;;;3.80;;
80681;SDS011;70045;40.200;44.582;2023-08-30T07:43:23;10.05;;;4.15;;
80681;SDS011;70045;40.200;44.582;2023-08-30T07:45:48;13.40;;;3.65;;
80681;SDS011;70045;40.200;44.582;2023-08-30T07:48:14;9.63;;;3.90;;
80681;SDS011;70045;40.200;44.582;2023-08-30T07:50:39;9.68;;;3.55;;
80681;SDS011;70045;40.200;44.582;2023-08-30T07:53:13;10.98;;;3.92;;
80681;SDS011;70045;40.200;44.582;2023-08-30T07:55:39;12.63;;;3.58;;
80681;SDS011;70045;40.200;44.582;2023-08-30T07:58:04;11.95;;;4.95;;
80681;SDS011;70045;40.200;44.582;2023-08-30T08:00:30;13.00;;;5.45;;
80681;SDS011;70045;40.200;44.582;2023-08-30T08:02:55;6.80;;;4.00;;
80681;SDS011;70045;40.200;44.582;2023-08-30T08:05:30;11.13;;;3.92;;
80681;SDS011;70045;40.200;44.582;2023-08-30T08:07:59;11.63;;;3.88;;
80681;SDS011;70045;40.200;44.582;2023-08-30T08:10:25;11.20;;;3.60;;
80681;SDS011;70045;40.200;44.582;2023-08-30T08:12:50;7.72;;;3.67;;
80681;SDS011;70045;40.200;44.582;2023-08-30T08:15:16;9.73;;;3.85;;
80681;SDS011;70045;40.200;44.582;2023-08-30T08:17:50;8.73;;;3.33;;
80681;SDS011;70045;40.200;44.582;2023-08-30T08:20:16;31.98;;;5.45;;
80681;SDS011;70045;40.200;44.582;2023-08-30T08:22:41;21.77;;;5.40;;
80681;SDS011;70045;40.200;44.582;2023-08-30T08:25:07;8.18;;;3.88;;
80681;SDS011;70045;40.200;44.582;2023-08-30T08:27:32;8.60;;;3.47;;
80681;SDS011;70045;40.200;44.582;2023-08-30T08:30:08;9.07;;;3.63;;
80681;SDS011;70045;40.200;44.582;2023-08-30T08:34:59;13.50;;;4.40;;
80681;SDS011;70045;40.200;44.582;2023-08-30T08:37:24;7.45;;;3.50;;
80681;SDS011;70045;40.200;44.582;2023-08-30T08:39:49;6.75;;;3.42;;
80681;SDS011;70045;40.200;44.582;2023-08-30T08:42:23;7.38;;;3.40;;
80681;SDS011;70045;40.200;44.582;2023-08-30T08:44:53;7.63;;;3.70;;
80681;SDS011;70045;40.200;44.582;2023-08-30T08:47:19;6.00;;;3.42;;
80681;SDS011;70045;40.200;44.582;2023-08-30T08:49:45;8.88;;;3.60;;
80681;SDS011;70045;40.200;44.582;2023-08-30T08:52:12;9.60;;;3.78;;
80681;SDS011;70045;40.200;44.582;2023-08-30T08:54:48;6.68;;;3.75;;
80681;SDS011;70045;40.200;44.582;2023-08-30T08:59:40;8.87;;;3.80;;
80681;SDS011;70045;40.200;44.582;2023-08-30T09:02:05;7.22;;;3.47;;
80681;SDS011;70045;40.200;44.582;2023-08-30T09:04:32;8.10;;;3.50;;
80681;SDS011;70045;40.200;44.582;2023-08-30T09:07:00;5.93;;;3.25;;
80681;SDS011;70045;40.200;44.582;2023-08-30T09:09:25;7.75;;;3.17;;
80681;SDS011;70045;40.200;44.582;2023-08-30T09:11:51;5.82;;;3.33;;
80681;SDS011;70045;40.200;44.582;2023-08-30T09:14:17;6.85;;;2.92;;
80681;SDS011;70045;40.200;44.582;2023-08-30T09:16:43;7.68;;;3.42;;
80681;SDS011;70045;40.200;44.582;2023-08-30T09:19:22;5.80;;;3.13;;
80681;SDS011;70045;40.200;44.582;2023-08-30T09:21:51;6.28;;;3.35;;
80681;SDS011;70045;40.200;44.582;2023-08-30T09:24:20;8.10;;;3.40;;
80681;SDS011;70045;40.200;44.582;2023-08-30T09:26:49;5.90;;;2.95;;
80681;SDS011;70045;40.200;44.582;2023-08-30T09:29:20;7.13;;;2.65;;
80681;SDS011;70045;40.200;44.582;2023-08-30T09:31:52;4.70;;;2.65;;
80681;SDS011;70045;40.200;44.582;2023-08-30T09:34:21;7.22;;;3.00;;
80681;SDS011;70045;40.200;44.582;2023-08-30T09:36:47;7.97;;;3.10;;
80681;SDS011;70045;40.200;44.582;2023-08-30T09:39:13;5.18;;;3.00;;
80681;SDS011;70045;40.200;44.582;2023-08-30T09:41:43;6.50;;;2.95;;
80681;SDS011;70045;40.200;44.582;2023-08-30T09:44:17;6.47;;;2.95;;
80681;SDS011;70045;40.200;44.582;2023-08-30T09:49:09;4.70;;;3.08;;
80681;SDS011;70045;40.200;44.582;2023-08-30T09:51:37;6.03;;;2.88;;
80681;SDS011;70045;40.200;44.582;2023-08-30T09:54:05;8.00;;;3.10;;
80681;SDS011;70045;40.200;44.582;2023-08-30T09:56:33;34.70;;;5.05;;
80681;SDS011;70045;40.200;44.582;2023-08-30T09:59:01;26.73;;;4.60;;
80681;SDS011;70045;40.200;44.582;2023-08-30T10:01:28;14.63;;;4.38;;
80681;SDS011;70045;40.200;44.582;2023-08-30T10:03:54;8.15;;;3.20;;
80681;SDS011;70045;40.200;44.582;2023-08-30T10:06:23;16.30;;;4.53;;
80681;SDS011;70045;40.200;44.582;2023-08-30T10:08:52;14.35;;;3.55;;
80681;SDS011;70045;40.200;44.582;2023-08-30T10:13:43;7.33;;;3.17;;
80681;SDS011;70045;40.200;44.582;2023-08-30T10:16:11;6.75;;;3.00;;
80681;SDS011;70045;40.200;44.582;2023-08-30T10:18:40;8.50;;;3.20;;
80681;SDS011;70045;40.200;44.582;2023-08-30T10:21:11;5.63;;;2.90;;
80681;SDS011;70045;40.200;44.582;2023-08-30T10:23:37;4.75;;;2.53;;
80681;SDS011;70045;40.200;44.582;2023-08-30T10:26:04;5.47;;;2.88;;
80681;SDS011;70045;40.200;44.582;2023-08-30T10:28:32;5.47;;;2.63;;
80681;SDS011;70045;40.200;44.582;2023-08-30T10:30:59;6.45;;;2.55;;
80681;SDS011;70045;40.200;44.582;2023-08-30T10:33:27;5.93;;;2.88;;
80681;SDS011;70045;40.200;44.582;2023-08-30T10:35:53;9.00;;;3.33;;
80681;SDS011;70045;40.200;44.582;2023-08-30T10:38:25;3.08;;;2.40;;
80681;SDS011;70045;40.200;44.582;2023-08-30T10:40:54;4.93;;;3.03;;
80681;SDS011;70045;40.200;44.582;2023-08-30T10:43:29;5.57;;;2.53;;
80681;SDS011;70045;40.200;44.582;2023-08-30T10:46:02;5.70;;;2.60;;
80681;SDS011;70045;40.200;44.582;2023-08-30T10:48:38;5.20;;;2.50;;
80681;SDS011;70045;40.200;44.582;2023-08-30T10:51:06;6.20;;;2.50;;
80681;SDS011;70045;40.200;44.582;2023-08-30T10:53:59;6.15;;;2.70;;
80681;SDS011;70045;40.200;44.582;2023-08-30T10:56:29;5.90;;;2.63;;
80681;SDS011;70045;40.200;44.582;2023-08-30T10:58:55;8.88;;;3.00;;
80681;SDS011;70045;40.200;44.582;2023-08-30T11:01:20;8.90;;;3.72;;
80681;SDS011;70045;40.200;44.582;2023-08-30T11:03:46;5.38;;;2.70;;
80681;SDS011;70045;40.200;44.582;2023-08-30T11:06:15;4.85;;;2.70;;
80681;SDS011;70045;40.200;44.582;2023-08-30T11:08:41;4.80;;;2.50;;
80681;SDS011;70045;40.200;44.582;2023-08-30T11:11:07;7.25;;;3.33;;
80681;SDS011;70045;40.200;44.582;2023-08-30T11:13:32;8.65;;;2.65;;
80681;SDS011;70045;40.200;44.582;2023-08-30T11:16:01;6.47;;;2.55;;
80681;SDS011;70045;40.200;44.582;2023-08-30T11:18:30;7.72;;;2.38;;
80681;SDS011;70045;40.200;44.582;2023-08-30T11:21:02;4.35;;;2.35;;
80681;SDS011;70045;40.200;44.582;2023-08-30T11:23:27;6.13;;;2.35;;
80681;SDS011;70045;40.200;44.582;2023-08-30T11:25:53;4.55;;;2.80;;
80681;SDS011;70045;40.200;44.582;2023-08-30T11:28:22;7.63;;;2.75;;
80681;SDS011;70045;40.200;44.582;2023-08-30T11:30:54;5.18;;;2.90;;
80681;SDS011;70045;40.200;44.582;2023-08-30T11:33:20;4.95;;;2.53;;
80681;SDS011;70045;40.200;44.582;2023-08-30T11:35:47;4.32;;;2.50;;
80681;SDS011;70045;40.200;44.582;2023-08-30T11:38:14;6.22;;;2.58;;
80681;SDS011;70045;40.200;44.582;2023-08-30T11:40:40;6.95;;;2.53;;
80681;SDS011;70045;40.200;44.582;2023-08-30T11:43:08;8.15;;;2.63;;
80681;SDS011;70045;40.200;44.582;2023-08-30T11:45:35;5.72;;;2.67;;
80681;SDS011;70045;40.200;44.582;2023-08-30T11:48:00;4.53;;;2.60;;
80681;SDS011;70045;40.200;44.582;2023-08-30T11:50:26;5.60;;;2.90;;
80681;SDS011;70045;40.200;44.582;2023-08-30T11:52:52;6.45;;;2.70;;
80681;SDS011;70045;40.200;44.582;2023-08-30T11:55:21;4.82;;;2.40;;
80681;SDS011;70045;40.200;44.582;2023-08-30T11:57:50;6.90;;;2.58;;
80681;SDS011;70045;40.200;44.582;2023-08-30T12:00:18;8.45;;;2.90;;
80681;SDS011;70045;40.200;44.582;2023-08-30T12:02:44;7.40;;;3.28;;
80681;SDS011;70045;40.200;44.582;2023-08-30T12:05:11;6.22;;;2.72;;
80681;SDS011;70045;40.200;44.582;2023-08-30T12:07:39;6.82;;;2.95;;
80681;SDS011;70045;40.200;44.582;2023-08-30T12:10:11;4.93;;;3.10;;
80681;SDS011;70045;40.200;44.582;2023-08-30T12:12:38;6.63;;;4.15;;
80681;SDS011;70045;40.200;44.582;2023-08-30T12:15:12;5.35;;;2.80;;
80681;SDS011;70045;40.200;44.582;2023-08-30T12:17:41;6.65;;;2.80;;
80681;SDS011;70045;40.200;44.582;2023-08-30T12:20:13;7.15;;;2.55;;
80681;SDS011;70045;40.200;44.582;2023-08-30T12:22:40;6.05;;;2.28;;
80681;SDS011;70045;40.200;44.582;2023-08-30T12:25:21;5.20;;;2.63;;
80681;SDS011;70045;40.200;44.582;2023-08-30T12:27:50;7.65;;;2.47;;
80681;SDS011;70045;40.200;44.582;2023-08-30T12:30:16;7.32;;;2.70;;
80681;SDS011;70045;40.200;44.582;2023-08-30T12:32:42;8.10;;;2.65;;
80681;SDS011;70045;40.200;44.582;2023-08-30T12:35:08;7.82;;;2.70;;
80681;SDS011;70045;40.200;44.582;2023-08-30T12:37:34;6.13;;;2.50;;
80681;SDS011;70045;40.200;44.582;2023-08-30T12:40:02;4.70;;;2.55;;
80681;SDS011;70045;40.200;44.582;2023-08-30T12:44:53;5.67;;;2.63;;
80681;SDS011;70045;40.200;44.582;2023-08-30T12:47:18;4.53;;;2.13;;
80681;SDS011;70045;40.200;44.582;2023-08-30T12:49:43;3.33;;;2.22;;
80681;SDS011;70045;40.200;44.582;2023-08-30T12:52:12;4.82;;;2.05;;
80681;SDS011;70045;40.200;44.582;2023-08-30T12:54:37;2.65;;;1.90;;
80681;SDS011;70045;40.200;44.582;2023-08-30T12:57:02;3.80;;;1.90;;
80681;SDS011;70045;40.200;44.582;2023-08-30T12:59:28;3.88;;;2.03;;
80681;SDS011;70045;40.200;44.582;2023-08-30T13:01:53;3.72;;;2.00;;
80681;SDS011;70045;40.200;44.582;2023-08-30T13:04:19;3.03;;;1.70;;
80681;SDS011;70045;40.200;44.582;2023-08-30T13:06:44;3.70;;;1.75;;
80681;SDS011;70045;40.200;44.582;2023-08-30T13:09:09;6.50;;;2.70;;
80681;SDS011;70045;40.200;44.582;2023-08-30T13:11:35;10.93;;;2.38;;
80681;SDS011;70045;40.200;44.582;2023-08-30T13:14:03;8.68;;;2.25;;
80681;SDS011;70045;40.200;44.582;2023-08-30T13:16:28;4.43;;;2.13;;
80681;SDS011;70045;40.200;44.582;2023-08-30T13:18:54;12.02;;;2.65;;
80681;SDS011;70045;40.200;44.582;2023-08-30T13:21:19;3.47;;;2.30;;
80681;SDS011;70045;40.200;44.582;2023-08-30T13:23:45;7.40;;;2.22;;
80681;SDS011;70045;40.200;44.582;2023-08-30T13:26:13;7.93;;;2.10;;
80681;SDS011;70045;40.200;44.582;2023-08-30T13:28:38;7.07;;;2.40;;
80681;SDS011;70045;40.200;44.582;2023-08-30T13:31:06;4.97;;;2.40;;
80681;SDS011;70045;40.200;44.582;2023-08-30T13:33:32;7.07;;;2.75;;
80681;SDS011;70045;40.200;44.582;2023-08-30T13:35:57;7.43;;;3.28;;
80681;SDS011;70045;40.200;44.582;2023-08-30T13:38:25;12.52;;;2.80;;
80681;SDS011;70045;40.200;44.582;2023-08-30T13:40:51;2.65;;;1.70;;
80681;SDS011;70045;40.200;44.582;2023-08-30T13:43:22;13.48;;;4.00;;
80681;SDS011;70045;40.200;44.582;2023-08-30T13:45:48;6.90;;;3.67;;
80681;SDS011;70045;40.200;44.582;2023-08-30T13:48:22;5.43;;;2.40;;
80681;SDS011;70045;40.200;44.582;2023-08-30T13:50:50;4.78;;;2.10;;
80681;SDS011;70045;40.200;44.582;2023-08-30T13:53:15;8.60;;;2.55;;
80681;SDS011;70045;40.200;44.582;2023-08-30T13:55:44;6.00;;;1.90;;
80681;SDS011;70045;40.200;44.582;2023-08-30T13:58:11;7.13;;;2.13;;
80681;SDS011;70045;40.200;44.582;2023-08-30T14:00:36;5.25;;;2.45;;
80681;SDS011;70045;40.200;44.582;2023-08-30T14:03:04;5.72;;;2.10;;
80681;SDS011;70045;40.200;44.582;2023-08-30T14:05:30;5.47;;;2.08;;
80681;SDS011;70045;40.200;44.582;2023-08-30T14:07:55;6.05;;;2.40;;
80681;SDS011;70045;40.200;44.582;2023-08-30T14:10:20;3.35;;;2.30;;
80681;SDS011;70045;40.200;44.582;2023-08-30T14:12:46;5.47;;;2.55;;
80681;SDS011;70045;40.200;44.582;2023-08-30T14:15:14;4.30;;;2.50;;
80681;SDS011;70045;40.200;44.582;2023-08-30T14:17:39;4.72;;;2.50;;
80681;SDS011;70045;40.200;44.582;2023-08-30T14:20:06;5.60;;;2.50;;
80681;SDS011;70045;40.200;44.582;2023-08-30T14:22:32;8.93;;;2.50;;
80681;SDS011;70045;40.200;44.582;2023-08-30T14:24:57;6.03;;;2.83;;
80681;SDS011;70045;40.200;44.582;2023-08-30T14:27:26;5.97;;;2.47;;
80681;SDS011;70045;40.200;44.582;2023-08-30T14:29:51;6.82;;;2.60;;
80681;SDS011;70045;40.200;44.582;2023-08-30T14:32:17;6.57;;;2.70;;
80681;SDS011;70045;40.200;44.582;2023-08-30T14:34:42;6.22;;;2.50;;
80681;SDS011;70045;40.200;44.582;2023-08-30T14:37:08;6.30;;;2.70;;
80681;SDS011;70045;40.200;44.582;2023-08-30T14:39:36;7.03;;;2.72;;
80681;SDS011;70045;40.200;44.582;2023-08-30T14:42:01;9.48;;;3.03;;
80681;SDS011;70045;40.200;44.582;2023-08-30T14:44:26;9.20;;;3.10;;
80681;SDS011;70045;40.200;44.582;2023-08-30T14:46:53;4.72;;;2.70;;
80681;SDS011;70045;40.200;44.582;2023-08-30T14:49:18;4.85;;;1.92;;
80681;SDS011;70045;40.200;44.582;2023-08-30T14:51:46;9.32;;;2.90;;
80681;SDS011;70045;40.200;44.582;2023-08-30T14:54:12;7.10;;;2.55;;